Terminal Aerodrome Forecast
Issued by NWS Jacksonville, FL

Home | Current Version | Previous Version | Text Only | Print | Product List | Glossary On
Versions: 1 2 3 4 5 6 7 8 9 10 11 12 13 14 15 16 17 18 19 20 21 22 23 24 25 26 27 28
160
FTUS42 KJAX 071120
TAFGNV
TAF
KGNV 071120Z 0712/0812 33012G23KT P6SM VCSH BKN008 OVC015
      TEMPO 0712/0713 SCT007 OVC015
     FM071300 32013G24KT P6SM SCT012 OVC025
     FM071500 32015G25KT P6SM SCT035
     FM072300 29008KT P6SM SKC=

USA.gov is the U.S. government's official web portal to all federal, state and local government web resources and services.